createdAt,value
2023-01-19T00:00:49.725Z,-2.10
2023-01-19T00:03:18.083Z,-2.10
2023-01-19T00:05:45.095Z,-2.20
2023-01-19T00:08:14.597Z,-2.10
2023-01-19T00:10:46.872Z,-2.30
2023-01-19T00:13:14.626Z,-2.30
2023-01-19T00:15:41.262Z,-2.30
2023-01-19T00:18:09.845Z,-2.40
2023-01-19T00:20:37.973Z,-2.50
2023-01-19T00:23:04.703Z,-2.50
2023-01-19T00:25:31.513Z,-2.50
2023-01-19T00:28:00.631Z,-2.50
2023-01-19T00:30:28.416Z,-2.60
2023-01-19T00:32:55.318Z,-2.60
2023-01-19T00:35:21.867Z,-2.60
2023-01-19T00:37:48.486Z,-2.60
2023-01-19T00:40:15.243Z,-2.70
2023-01-19T00:42:44.411Z,-2.70
2023-01-19T00:45:16.697Z,-2.80
2023-01-19T00:47:43.293Z,-2.80
2023-01-19T00:50:11.749Z,-2.90
2023-01-19T00:52:40.004Z,-2.90
2023-01-19T00:55:08.716Z,-2.90
2023-01-19T00:57:35.403Z,-2.90
2023-01-19T01:00:02.568Z,-3.00
2023-01-19T01:02:29.287Z,-3.00
2023-01-19T01:04:56.633Z,-3.00
2023-01-19T01:07:24.198Z,-3.00
2023-01-19T01:09:51.310Z,-3.00
2023-01-19T01:12:17.864Z,-3.10
2023-01-19T01:14:44.578Z,-3.10
2023-01-19T01:17:11.536Z,-3.10
2023-01-19T01:19:38.694Z,-3.10
2023-01-19T01:22:05.398Z,-3.20
2023-01-19T01:24:32.675Z,-3.10
2023-01-19T01:26:59.280Z,-3.20
2023-01-19T01:29:26.335Z,-3.20
2023-01-19T01:31:52.996Z,-3.40
2023-01-19T01:34:19.653Z,-3.40
2023-01-19T01:36:46.275Z,-3.60
2023-01-19T01:39:12.899Z,-3.60
2023-01-19T01:41:39.644Z,-3.50
2023-01-19T01:44:49.551Z,-3.50
2023-01-19T01:47:34.520Z,-3.40
2023-01-19T01:50:08.220Z,-3.50
2023-01-19T01:52:38.955Z,-3.50
2023-01-19T01:55:09.809Z,-3.50
2023-01-19T01:57:41.646Z,-3.50
2023-01-19T02:00:09.026Z,-3.50
2023-01-19T02:02:52.254Z,-3.60
2023-01-19T02:05:26.600Z,-3.60
2023-01-19T02:08:18.268Z,-3.50
2023-01-19T02:11:03.667Z,-3.50
2023-01-19T02:13:32.763Z,-3.50
2023-01-19T02:16:02.909Z,-3.50
2023-01-19T02:18:31.615Z,-3.60
2023-01-19T02:21:13.573Z,-3.70
2023-01-19T02:23:45.242Z,-3.90
2023-01-19T02:26:18.807Z,-4.00
2023-01-19T02:28:50.821Z,-4.00
2023-01-19T02:31:18.105Z,-3.90
2023-01-19T02:33:45.056Z,-4.00
2023-01-19T02:36:15.267Z,-4.00
2023-01-19T02:38:44.536Z,-4.00
2023-01-19T02:41:15.218Z,-4.00
2023-01-19T02:43:43.519Z,-4.00
2023-01-19T02:46:10.202Z,-4.00
2023-01-19T02:48:36.813Z,-4.10
2023-01-19T02:51:16.972Z,-4.10
2023-01-19T02:54:04.717Z,-4.30
2023-01-19T02:56:34.675Z,-4.30
2023-01-19T02:59:33.817Z,-4.40
2023-01-19T03:02:19.402Z,-4.40
2023-01-19T03:05:24.052Z,-4.40
2023-01-19T03:08:11.639Z,-4.40
2023-01-19T03:11:04.459Z,-4.40
2023-01-19T03:13:42.946Z,-4.30
2023-01-19T03:16:12.792Z,-4.20
2023-01-19T03:18:43.693Z,-4.20
2023-01-19T03:21:13.208Z,-4.30
2023-01-19T03:23:43.461Z,-4.30
2023-01-19T03:26:15.817Z,-4.30
2023-01-19T03:28:45.480Z,-4.30
2023-01-19T03:31:26.337Z,-4.20
2023-01-19T03:33:56.872Z,-4.30
2023-01-19T03:36:32.312Z,-4.30
2023-01-19T03:39:01.109Z,-4.30
2023-01-19T03:41:30.439Z,-4.30
2023-01-19T03:43:58.076Z,-4.30
2023-01-19T03:46:25.674Z,-4.40
2023-01-19T03:48:52.639Z,-4.40
2023-01-19T03:51:19.932Z,-4.30
2023-01-19T03:53:47.183Z,-4.30
2023-01-19T03:56:22.595Z,-4.40
2023-01-19T03:58:49.404Z,-4.40
2023-01-19T04:01:17.900Z,-4.30
2023-01-19T04:03:44.583Z,-4.30
2023-01-19T04:06:11.435Z,-4.40
2023-01-19T04:08:38.059Z,-4.30
2023-01-19T04:11:04.836Z,-4.50
2023-01-19T04:13:31.464Z,-4.50
2023-01-19T04:16:02.318Z,-4.50
2023-01-19T04:18:32.363Z,-4.50
2023-01-19T04:21:05.992Z,-4.60
2023-01-19T04:23:33.699Z,-4.60
2023-01-19T04:26:02.991Z,-4.60
2023-01-19T04:28:29.699Z,-4.60
2023-01-19T04:30:56.608Z,-4.70
2023-01-19T04:33:24.201Z,-4.60
2023-01-19T04:35:54.462Z,-4.60
2023-01-19T04:38:21.602Z,-4.60
2023-01-19T04:40:52.687Z,-4.60
2023-01-19T04:43:21.746Z,-4.50
2023-01-19T04:45:49.130Z,-4.50
2023-01-19T04:48:16.327Z,-4.40
2023-01-19T04:50:42.958Z,-4.50
2023-01-19T04:53:10.123Z,-4.50
2023-01-19T04:55:38.709Z,-4.50
2023-01-19T04:58:05.436Z,-4.60
2023-01-19T05:00:32.040Z,-4.70
2023-01-19T05:02:59.005Z,-4.60
2023-01-19T05:05:27.219Z,-4.60
2023-01-19T05:07:54.653Z,-4.70
2023-01-19T05:10:21.611Z,-4.70
2023-01-19T05:12:48.174Z,-4.70
2023-01-19T05:15:15.027Z,-4.70
2023-01-19T05:17:41.999Z,-4.70
2023-01-19T05:20:11.089Z,-4.70
2023-01-19T05:22:39.094Z,-4.70
2023-01-19T05:25:08.660Z,-4.70
2023-01-19T05:27:36.626Z,-4.70
2023-01-19T05:30:05.413Z,-4.60
2023-01-19T05:32:32.330Z,-4.70
2023-01-19T05:34:58.909Z,-4.70
2023-01-19T05:37:25.538Z,-4.70
2023-01-19T05:39:52.622Z,-4.60
2023-01-19T05:42:20.251Z,-4.70
2023-01-19T05:44:46.870Z,-4.70
2023-01-19T05:47:13.747Z,-4.70
2023-01-19T05:49:40.382Z,-4.70
2023-01-19T05:52:06.985Z,-4.70
2023-01-19T05:54:33.572Z,-4.60
2023-01-19T05:57:00.185Z,-4.40
2023-01-19T05:59:26.781Z,-4.50
2023-01-19T06:01:53.945Z,-4.50
2023-01-19T06:04:21.103Z,-4.60
2023-01-19T06:06:48.824Z,-4.50
2023-01-19T06:09:15.486Z,-4.60
2023-01-19T06:11:42.102Z,-4.60
2023-01-19T06:14:10.499Z,-4.70
2023-01-19T06:16:37.290Z,-4.60
2023-01-19T06:19:04.286Z,-4.60
2023-01-19T06:21:31.433Z,-4.60
2023-01-19T06:23:58.710Z,-4.70
2023-01-19T06:26:26.085Z,-4.60
2023-01-19T06:28:53.004Z,-4.70
2023-01-19T06:31:19.716Z,-4.60
2023-01-19T06:33:46.527Z,-4.60
2023-01-19T06:36:13.243Z,-4.50
2023-01-19T06:38:40.229Z,-4.60
2023-01-19T06:41:06.808Z,-4.40
2023-01-19T06:43:33.438Z,-4.50
2023-01-19T06:46:00.558Z,-4.50
2023-01-19T06:48:27.635Z,-4.60
2023-01-19T06:50:54.283Z,-4.50
2023-01-19T06:53:22.177Z,-4.50
2023-01-19T06:55:48.839Z,-4.50
2023-01-19T06:58:15.759Z,-4.40
2023-01-19T07:00:43.063Z,-4.40
2023-01-19T07:03:16.672Z,-4.40
2023-01-19T07:05:43.293Z,-4.40
2023-01-19T07:08:10.096Z,-4.40
2023-01-19T07:11:24.948Z,-4.40
2023-01-19T07:13:23.859Z,-4.40
2023-01-19T07:15:50.476Z,-4.50
2023-01-19T07:18:17.095Z,-4.50
2023-01-19T07:20:45.809Z,-4.60
2023-01-19T07:23:12.425Z,-4.50
2023-01-19T07:25:39.593Z,-4.50
2023-01-19T07:28:06.189Z,-4.40
2023-01-19T07:30:32.811Z,-4.50
2023-01-19T07:32:59.710Z,-4.60
2023-01-19T07:35:26.969Z,-4.60
2023-01-19T07:37:53.564Z,-4.70
2023-01-19T07:40:20.444Z,-4.80
2023-01-19T07:42:49.156Z,-4.80
2023-01-19T07:45:17.191Z,-4.90
2023-01-19T07:47:45.041Z,-4.80
2023-01-19T07:50:13.643Z,-5.00
2023-01-19T07:52:40.291Z,-5.10
2023-01-19T07:55:07.225Z,-4.90
2023-01-19T07:57:34.307Z,-5.00
2023-01-19T08:00:00.995Z,-4.90
2023-01-19T08:02:27.602Z,-4.90
2023-01-19T08:04:54.317Z,-4.80
2023-01-19T08:07:21.051Z,-4.70
2023-01-19T08:09:47.647Z,-4.70
2023-01-19T08:12:14.309Z,-4.50
2023-01-19T08:14:40.907Z,-4.40
2023-01-19T08:17:07.469Z,-4.50
2023-01-19T08:19:34.056Z,-4.50
2023-01-19T08:22:00.991Z,-4.50
2023-01-19T08:24:29.150Z,-4.40
2023-01-19T08:26:59.496Z,-4.40
2023-01-19T08:29:26.458Z,-4.40
2023-01-19T08:31:55.428Z,-4.40
2023-01-19T08:34:22.073Z,-4.40
2023-01-19T08:36:49.477Z,-4.40
2023-01-19T08:39:17.885Z,-4.30
2023-01-19T08:41:44.744Z,-4.40
2023-01-19T08:44:11.389Z,-4.30
2023-01-19T08:46:38.103Z,-4.30
2023-01-19T08:49:04.733Z,-4.30
2023-01-19T08:51:31.340Z,-4.20
2023-01-19T08:53:57.967Z,-4.10
2023-01-19T08:56:24.534Z,-4.10
2023-01-19T08:59:03.403Z,-4.00
2023-01-19T09:01:35.113Z,-4.10
2023-01-19T09:04:01.685Z,-4.00
2023-01-19T09:06:28.364Z,-4.00
2023-01-19T09:08:55.011Z,-3.90
2023-01-19T09:11:21.574Z,-3.90
2023-01-19T09:13:48.192Z,-3.80
2023-01-19T09:16:15.787Z,-3.70
2023-01-19T09:18:42.388Z,-3.50
2023-01-19T09:21:11.777Z,-3.50
2023-01-19T09:23:38.761Z,-3.50
2023-01-19T09:26:06.217Z,-3.40
2023-01-19T09:28:34.985Z,-3.20
2023-01-19T09:31:06.504Z,-3.10
2023-01-19T09:33:33.943Z,-3.00
2023-01-19T09:36:01.998Z,-3.00
2023-01-19T09:38:32.496Z,-3.20
2023-01-19T09:41:00.150Z,-3.10
2023-01-19T09:43:41.381Z,-3.20
2023-01-19T09:46:13.458Z,-3.20
2023-01-19T09:48:50.916Z,-3.10
2023-01-19T09:51:32.695Z,-2.90
2023-01-19T09:54:15.787Z,-2.90
2023-01-19T09:56:43.818Z,-2.80
2023-01-19T09:59:30.779Z,-2.70
2023-01-19T10:02:18.636Z,-2.60
2023-01-19T10:05:22.492Z,-2.40
2023-01-19T10:08:08.593Z,-2.50
2023-01-19T10:10:37.316Z,-2.50
2023-01-19T10:13:34.037Z,-2.40
2023-01-19T10:16:09.395Z,-2.40
2023-01-19T10:18:51.328Z,-2.20
2023-01-19T10:21:43.375Z,-2.10
2023-01-19T10:24:21.010Z,-2.10
2023-01-19T10:26:53.375Z,-2.00
2023-01-19T10:29:36.222Z,-2.10
2023-01-19T10:32:12.791Z,-2.10
2023-01-19T10:34:45.965Z,-1.90
2023-01-19T10:37:29.582Z,-1.80
2023-01-19T10:40:11.603Z,-1.90
2023-01-19T10:42:40.427Z,-1.80
2023-01-19T10:45:21.637Z,-1.80
2023-01-19T10:47:49.421Z,-1.70
2023-01-19T10:50:29.467Z,-1.60
2023-01-19T10:53:01.909Z,-1.60
2023-01-19T10:55:33.390Z,-1.60
2023-01-19T10:58:00.991Z,-1.50
2023-01-19T11:00:33.489Z,-1.40
2023-01-19T11:03:01.245Z,-1.30
2023-01-19T11:05:30.256Z,-1.30
2023-01-19T11:07:57.309Z,-1.20
2023-01-19T11:10:26.042Z,-1.20
2023-01-19T11:13:13.083Z,-1.10
2023-01-19T11:15:58.463Z,-1.10
2023-01-19T11:18:29.427Z,-1.00
2023-01-19T11:21:00.922Z,-1.00
2023-01-19T11:23:31.563Z,-1.00
2023-01-19T11:26:04.959Z,-1.00
2023-01-19T11:28:56.385Z,-1.00
2023-01-19T11:31:28.956Z,-1.00
2023-01-19T11:34:04.085Z,-0.90
2023-01-19T11:36:33.652Z,-0.80
2023-01-19T11:39:20.484Z,-0.80
2023-01-19T11:41:51.864Z,-0.70
2023-01-19T11:44:22.515Z,-0.70
2023-01-19T11:47:25.155Z,-0.70
2023-01-19T11:50:12.491Z,-0.50
2023-01-19T11:52:44.765Z,-0.40
2023-01-19T11:55:25.501Z,-0.30
2023-01-19T11:57:58.417Z,-0.30
2023-01-19T12:00:35.535Z,-0.30
2023-01-19T12:03:09.629Z,-0.20
2023-01-19T12:05:40.369Z,-0.20
2023-01-19T12:08:18.976Z,-0.20
2023-01-19T12:10:47.552Z,-0.10
2023-01-19T12:13:22.892Z,-0.10
2023-01-19T12:15:58.868Z,0.00
2023-01-19T12:18:30.222Z,0.00
2023-01-19T12:20:58.581Z,0.10
2023-01-19T12:23:31.977Z,0.20
2023-01-19T12:26:16.825Z,0.20
2023-01-19T12:28:47.148Z,0.20
2023-01-19T12:31:22.863Z,0.30
2023-01-19T12:33:51.004Z,0.40
2023-01-19T12:36:23.394Z,0.50
2023-01-19T12:38:55.420Z,0.50
2023-01-19T12:41:23.641Z,0.60
2023-01-19T12:44:16.372Z,0.60
2023-01-19T12:46:57.966Z,0.70
2023-01-19T12:49:35.445Z,0.70
2023-01-19T12:52:28.989Z,0.70
2023-01-19T12:54:55.576Z,1.00
2023-01-19T12:57:56.900Z,0.90
2023-01-19T13:00:23.461Z,0.90
2023-01-19T13:02:55.548Z,1.00
2023-01-19T13:05:42.414Z,1.00
2023-01-19T13:08:08.935Z,1.20
2023-01-19T13:11:12.886Z,1.30
2023-01-19T13:13:48.402Z,1.40
2023-01-19T13:16:29.789Z,1.50
2023-01-19T13:19:05.201Z,1.40
2023-01-19T13:21:44.716Z,1.50
2023-01-19T13:24:11.721Z,1.50
2023-01-19T13:26:43.071Z,1.60
2023-01-19T13:29:34.219Z,1.60
2023-01-19T13:32:04.719Z,1.70
2023-01-19T13:34:40.174Z,1.70
2023-01-19T13:37:15.741Z,1.80
2023-01-19T13:39:44.357Z,1.90
2023-01-19T13:42:25.047Z,1.90
2023-01-19T13:44:58.787Z,2.00
2023-01-19T13:47:46.606Z,2.00
2023-01-19T13:50:28.642Z,2.00
2023-01-19T13:52:56.628Z,2.00
2023-01-19T13:55:24.616Z,1.90
2023-01-19T13:57:54.044Z,1.80
2023-01-19T14:00:27.203Z,1.70
2023-01-19T14:02:59.986Z,1.60
2023-01-19T14:05:38.977Z,1.60
2023-01-19T14:08:08.859Z,1.70
2023-01-19T14:10:38.248Z,1.60
2023-01-19T14:13:12.948Z,1.70
2023-01-19T14:15:40.772Z,1.80
2023-01-19T14:18:17.770Z,1.90
2023-01-19T14:21:01.328Z,1.90
2023-01-19T14:23:47.911Z,1.90
2023-01-19T14:26:44.963Z,1.90
2023-01-19T14:29:33.153Z,2.00
2023-01-19T14:32:21.552Z,2.00
2023-01-19T14:35:03.995Z,2.10
2023-01-19T14:37:35.987Z,2.10
2023-01-19T14:40:10.651Z,2.00
2023-01-19T14:42:49.155Z,2.10
2023-01-19T14:45:26.590Z,2.00
2023-01-19T14:48:17.736Z,2.10
2023-01-19T14:51:02.026Z,2.10
2023-01-19T14:53:38.239Z,2.10
2023-01-19T14:56:06.726Z,2.10
2023-01-19T14:58:35.288Z,2.00
2023-01-19T15:01:03.201Z,2.00
2023-01-19T15:03:43.537Z,2.00
2023-01-19T15:06:15.200Z,2.00
2023-01-19T15:08:42.369Z,2.00
2023-01-19T15:11:13.732Z,2.00
2023-01-19T15:13:43.317Z,2.00
2023-01-19T15:16:09.958Z,2.00
2023-01-19T15:18:36.591Z,1.90
2023-01-19T15:21:20.396Z,1.90
2023-01-19T15:23:47.496Z,1.90
2023-01-19T15:26:17.443Z,1.80
2023-01-19T15:28:45.358Z,1.80
2023-01-19T15:31:16.222Z,1.80
2023-01-19T15:33:43.707Z,1.80
2023-01-19T15:36:17.009Z,1.80
2023-01-19T15:38:45.040Z,1.70
2023-01-19T15:41:18.723Z,1.50
2023-01-19T15:43:45.496Z,1.40
2023-01-19T15:46:15.485Z,1.30
2023-01-19T15:48:42.484Z,1.30
2023-01-19T15:51:16.002Z,1.30
2023-01-19T15:53:43.511Z,1.10
2023-01-19T15:56:23.288Z,1.00
2023-01-19T15:58:50.386Z,0.70
2023-01-19T16:01:22.651Z,0.70
2023-01-19T16:03:50.291Z,0.60
2023-01-19T16:06:17.877Z,0.50
2023-01-19T16:08:45.096Z,0.40
2023-01-19T16:11:15.729Z,0.30
2023-01-19T16:13:48.443Z,0.00
2023-01-19T16:16:18.289Z,-0.10
2023-01-19T16:18:45.345Z,-0.20
2023-01-19T16:21:12.534Z,-0.20
2023-01-19T16:23:39.417Z,-0.30
2023-01-19T16:26:21.828Z,-0.40
2023-01-19T16:28:48.429Z,-0.50
2023-01-19T16:31:16.502Z,-0.60
2023-01-19T16:33:45.337Z,-0.70
2023-01-19T16:36:27.332Z,-0.80
2023-01-19T16:38:54.723Z,-0.90
2023-01-19T16:41:21.337Z,-0.80
2023-01-19T16:43:55.175Z,-0.90
2023-01-19T16:46:24.856Z,-1.00
2023-01-19T16:48:52.572Z,-1.10
2023-01-19T16:51:19.703Z,-1.10
2023-01-19T16:53:48.356Z,-1.20
2023-01-19T16:56:14.971Z,-1.30
2023-01-19T16:58:41.881Z,-1.30
2023-01-19T17:01:18.340Z,-1.30
2023-01-19T17:03:46.660Z,-1.30
2023-01-19T17:06:15.915Z,-1.30
2023-01-19T17:08:42.542Z,-1.30
2023-01-19T17:11:19.404Z,-1.40
2023-01-19T17:13:52.476Z,-1.50
2023-01-19T17:16:19.095Z,-1.40
2023-01-19T17:18:45.843Z,-1.40
2023-01-19T17:21:14.064Z,-1.50
2023-01-19T17:23:45.508Z,-1.60
2023-01-19T17:26:12.694Z,-1.60
2023-01-19T17:28:40.125Z,-1.70
2023-01-19T17:31:09.223Z,-1.60
2023-01-19T17:33:36.292Z,-1.60
2023-01-19T17:36:14.775Z,-1.70
2023-01-19T17:38:41.570Z,-1.70
2023-01-19T17:41:16.038Z,-1.70
2023-01-19T17:43:43.332Z,-1.70
2023-01-19T17:46:10.766Z,-1.60
2023-01-19T17:48:38.191Z,-1.70
2023-01-19T17:51:08.166Z,-1.60
2023-01-19T17:53:37.685Z,-1.60
2023-01-19T17:56:10.088Z,-1.60
2023-01-19T17:58:37.045Z,-1.60
2023-01-19T18:01:21.438Z,-1.70
2023-01-19T18:03:48.333Z,-1.90
2023-01-19T18:06:15.235Z,-1.90
2023-01-19T18:08:43.700Z,-1.90
2023-01-19T18:11:11.253Z,-1.90
2023-01-19T18:13:41.708Z,-1.90
2023-01-19T18:16:13.872Z,-2.00
2023-01-19T18:18:41.368Z,-1.90
2023-01-19T18:21:10.942Z,-2.00
2023-01-19T18:23:37.994Z,-2.10
2023-01-19T18:26:07.555Z,-2.20
2023-01-19T18:28:35.110Z,-2.30
2023-01-19T18:31:02.791Z,-2.40
2023-01-19T18:33:31.270Z,-2.30
2023-01-19T18:35:58.148Z,-2.30
2023-01-19T18:38:24.835Z,-2.30
2023-01-19T18:41:14.667Z,-2.30
2023-01-19T18:43:41.437Z,-2.40
2023-01-19T18:46:08.714Z,-2.40
2023-01-19T18:48:36.442Z,-2.30
2023-01-19T18:51:08.210Z,-2.30
2023-01-19T18:53:35.197Z,-2.30
2023-01-19T18:56:03.254Z,-2.40
2023-01-19T18:58:31.889Z,-2.40
2023-01-19T19:01:01.945Z,-2.20
2023-01-19T19:03:29.168Z,-2.40
2023-01-19T19:05:56.420Z,-2.60
2023-01-19T19:08:23.500Z,-2.80
2023-01-19T19:10:50.120Z,-2.70
2023-01-19T19:13:17.768Z,-2.80
2023-01-19T19:15:44.959Z,-2.80
2023-01-19T19:18:13.657Z,-2.90
2023-01-19T19:20:41.964Z,-2.90
2023-01-19T19:23:09.979Z,-3.00
2023-01-19T19:25:36.878Z,-3.10
2023-01-19T19:28:04.057Z,-3.30
2023-01-19T19:30:30.720Z,-3.30
2023-01-19T19:32:58.844Z,-3.40
2023-01-19T19:35:25.895Z,-3.40
2023-01-19T19:37:57.173Z,-3.40
2023-01-19T19:40:25.250Z,-3.50
2023-01-19T19:42:51.846Z,-3.40
2023-01-19T19:45:19.326Z,-3.40
2023-01-19T19:47:45.958Z,-3.30
2023-01-19T19:50:13.012Z,-3.30
2023-01-19T19:52:41.985Z,-3.10
2023-01-19T19:55:10.424Z,-3.40
2023-01-19T19:57:37.186Z,-3.50
2023-01-19T20:00:05.120Z,-3.50
2023-01-19T20:02:32.021Z,-3.50
2023-01-19T20:04:58.724Z,-3.50
2023-01-19T20:07:25.505Z,-3.60
2023-01-19T20:09:53.386Z,-3.70
2023-01-19T20:12:19.997Z,-3.80
2023-01-19T20:14:46.666Z,-3.60
2023-01-19T20:17:13.284Z,-3.70
2023-01-19T20:19:39.855Z,-3.70
2023-01-19T20:22:07.289Z,-3.70
2023-01-19T20:24:33.888Z,-3.60
2023-01-19T20:27:00.534Z,-3.70
2023-01-19T20:29:27.314Z,-3.70
2023-01-19T20:31:56.108Z,-3.70
2023-01-19T20:34:26.914Z,-3.50
2023-01-19T20:36:54.621Z,-3.70
2023-01-19T20:39:22.987Z,-3.80
2023-01-19T20:41:51.321Z,-3.90
2023-01-19T20:44:21.007Z,-3.90
2023-01-19T20:46:47.837Z,-3.90
2023-01-19T20:49:14.724Z,-3.90
2023-01-19T20:51:43.384Z,-3.90
2023-01-19T20:54:11.226Z,-4.00
2023-01-19T20:56:38.217Z,-4.00
2023-01-19T20:59:04.790Z,-4.00
2023-01-19T21:01:31.528Z,-4.00
2023-01-19T21:03:58.298Z,-4.00
2023-01-19T21:06:25.097Z,-4.10
2023-01-19T21:08:51.905Z,-4.20
2023-01-19T21:11:20.865Z,-4.20
2023-01-19T21:13:48.581Z,-4.10
2023-01-19T21:16:15.544Z,-4.20
2023-01-19T21:18:42.299Z,-4.20
2023-01-19T21:21:17.808Z,-4.20
2023-01-19T21:23:51.237Z,-4.20
2023-01-19T21:26:17.967Z,-4.30
2023-01-19T21:28:45.187Z,-4.20
2023-01-19T21:31:14.329Z,-4.20
2023-01-19T21:33:42.438Z,-4.40
2023-01-19T21:36:10.762Z,-4.50
2023-01-19T21:38:38.489Z,-4.40
2023-01-19T21:41:11.805Z,-4.30
2023-01-19T21:43:40.864Z,-4.30
2023-01-19T21:46:16.720Z,-4.50
2023-01-19T21:48:43.515Z,-4.50
2023-01-19T21:51:10.268Z,-4.60
2023-01-19T21:53:36.935Z,-4.60
2023-01-19T21:56:06.684Z,-4.70
2023-01-19T21:58:33.479Z,-4.80
2023-01-19T22:01:06.633Z,-4.80
2023-01-19T22:03:33.307Z,-4.80
2023-01-19T22:06:05.040Z,-4.80
2023-01-19T22:08:32.047Z,-4.80
2023-01-19T22:11:05.240Z,-4.80
2023-01-19T22:13:32.698Z,-4.90
2023-01-19T22:16:01.380Z,-5.00
2023-01-19T22:18:28.018Z,-5.00
2023-01-19T22:20:54.650Z,-4.90
2023-01-19T22:23:21.279Z,-4.90
2023-01-19T22:25:47.883Z,-5.00
2023-01-19T22:28:14.451Z,-4.80
2023-01-19T22:30:41.098Z,-5.00
2023-01-19T22:33:07.697Z,-5.00
2023-01-19T22:35:34.287Z,-5.00
2023-01-19T22:38:02.013Z,-5.00
2023-01-19T22:40:28.661Z,-5.10
2023-01-19T22:42:55.289Z,-5.10
2023-01-19T22:45:21.914Z,-5.10
2023-01-19T22:47:48.535Z,-5.10
2023-01-19T22:50:15.488Z,-5.20
2023-01-19T22:52:42.419Z,-5.20
2023-01-19T22:55:09.455Z,-5.30
2023-01-19T22:57:36.535Z,-5.30
2023-01-19T23:00:06.975Z,-5.20
2023-01-19T23:02:33.659Z,-5.10
2023-01-19T23:05:00.377Z,-5.10
2023-01-19T23:07:26.943Z,-5.20
2023-01-19T23:09:53.501Z,-5.20
2023-01-19T23:12:20.106Z,-5.20
2023-01-19T23:14:46.719Z,-5.20
2023-01-19T23:17:13.437Z,-5.30
2023-01-19T23:19:40.008Z,-5.30
2023-01-19T23:22:06.608Z,-5.30
2023-01-19T23:24:33.367Z,-5.30
2023-01-19T23:27:02.099Z,-5.30
2023-01-19T23:29:28.740Z,-5.40
2023-01-19T23:31:57.687Z,-5.40
2023-01-19T23:34:24.292Z,-5.50
2023-01-19T23:36:51.099Z,-5.40
2023-01-19T23:39:20.272Z,-5.50
2023-01-19T23:41:47.953Z,-5.50
2023-01-19T23:44:18.149Z,-5.50
2023-01-19T23:46:45.732Z,-5.50
2023-01-19T23:49:12.991Z,-5.50
2023-01-19T23:51:40.680Z,-5.60
2023-01-19T23:54:07.673Z,-5.60
2023-01-19T23:56:36.768Z,-5.60
2023-01-19T23:59:12.718Z,-5.60
